createdAt,value
2022-11-13T00:01:30.794Z,26.60
2022-11-13T00:04:00.660Z,25.42
2022-11-13T00:06:30.355Z,24.80
2022-11-13T00:09:00.293Z,20.95
2022-11-13T00:11:30.169Z,24.70
2022-11-13T00:13:59.958Z,25.10
2022-11-13T00:16:30.130Z,23.40
2022-11-13T00:18:59.530Z,23.23
2022-11-13T00:21:29.790Z,25.02
2022-11-13T00:23:59.067Z,22.98
2022-11-13T00:26:31.741Z,22.40
2022-11-13T00:29:03.802Z,23.25
2022-11-13T00:31:32.249Z,22.95
2022-11-13T00:34:19.617Z,23.30
2022-11-13T00:36:50.275Z,24.20
2022-11-13T00:39:20.166Z,23.60
2022-11-13T00:41:50.026Z,22.52
2022-11-13T00:44:20.003Z,24.08
2022-11-13T00:46:49.702Z,20.65
2022-11-13T00:49:19.541Z,23.02
2022-11-13T00:51:49.486Z,22.45
2022-11-13T00:54:19.517Z,21.67
2022-11-13T00:56:49.382Z,22.95
2022-11-13T00:59:19.149Z,20.65
2022-11-13T01:01:49.174Z,21.83
2022-11-13T01:04:19.001Z,22.25
2022-11-13T01:06:48.821Z,21.00
2022-11-13T01:09:18.917Z,20.90
2022-11-13T01:11:48.833Z,21.60
2022-11-13T01:14:18.770Z,21.70
2022-11-13T01:16:48.592Z,22.80
2022-11-13T01:19:18.675Z,20.83
2022-11-13T01:21:48.310Z,22.33
2022-11-13T01:24:18.201Z,21.02
2022-11-13T01:26:48.418Z,20.73
2022-11-13T01:29:18.359Z,22.98
2022-11-13T01:31:48.091Z,23.02
2022-11-13T01:34:18.190Z,22.83
2022-11-13T01:36:48.283Z,23.55
2022-11-13T01:39:18.141Z,22.75
2022-11-13T01:41:48.287Z,22.00
2022-11-13T01:44:20.225Z,23.48
2022-11-13T01:46:57.155Z,24.45
2022-11-13T01:49:41.319Z,22.50
2022-11-13T01:52:26.993Z,24.20
2022-11-13T01:55:11.605Z,22.45
2022-11-13T01:57:42.674Z,23.77
2022-11-13T02:00:13.634Z,25.13
2022-11-13T02:02:44.307Z,22.42
2022-11-13T02:05:14.427Z,23.17
2022-11-13T02:07:44.973Z,20.30
2022-11-13T02:10:15.272Z,21.88
2022-11-13T02:12:52.344Z,21.50
2022-11-13T02:15:31.695Z,21.48
2022-11-13T02:18:04.403Z,20.45
2022-11-13T02:20:55.023Z,20.77
2022-11-13T02:23:39.698Z,21.15
2022-11-13T02:26:12.621Z,18.85
2022-11-13T02:28:42.807Z,21.17
2022-11-13T02:31:14.497Z,20.90
2022-11-13T02:33:42.639Z,19.90
2022-11-13T02:36:13.865Z,18.63
2022-11-13T02:38:45.618Z,20.58
2022-11-13T02:41:15.671Z,19.70
2022-11-13T02:43:46.123Z,18.73
2022-11-13T02:46:16.316Z,18.73
2022-11-13T02:48:46.656Z,18.40
2022-11-13T02:51:16.709Z,18.00
2022-11-13T02:53:46.771Z,17.58
2022-11-13T02:56:17.159Z,18.25
2022-11-13T02:58:47.191Z,16.63
2022-11-13T03:01:15.689Z,16.85
2022-11-13T03:03:59.272Z,17.10
2022-11-13T03:06:28.199Z,15.32
2022-11-13T03:08:57.917Z,14.68
2022-11-13T03:11:26.393Z,15.95
2022-11-13T03:13:55.288Z,16.42
2022-11-13T03:16:23.239Z,15.85
2022-11-13T03:18:51.602Z,15.45
2022-11-13T03:21:19.980Z,13.80
2022-11-13T03:23:48.592Z,14.30
2022-11-13T03:26:18.088Z,13.73
2022-11-13T03:28:46.293Z,14.80
2022-11-13T03:31:13.919Z,13.95
2022-11-13T03:33:42.345Z,12.93
2022-11-13T03:36:10.535Z,12.60
2022-11-13T03:38:38.893Z,12.75
2022-11-13T03:41:07.326Z,14.27
2022-11-13T03:43:35.725Z,11.48
2022-11-13T03:46:04.212Z,13.13
2022-11-13T03:48:33.432Z,12.20
2022-11-13T03:51:02.330Z,12.68
2022-11-13T03:53:29.467Z,12.32
2022-11-13T03:55:58.453Z,11.88
2022-11-13T03:58:26.918Z,13.32
2022-11-13T04:00:56.851Z,14.18
2022-11-13T04:03:26.038Z,11.77
2022-11-13T04:05:54.635Z,12.13
2022-11-13T04:08:22.909Z,11.20
2022-11-13T04:10:51.340Z,12.65
2022-11-13T04:13:19.698Z,11.90
2022-11-13T04:15:51.293Z,12.90
2022-11-13T04:18:19.528Z,13.05
2022-11-13T04:20:48.002Z,12.43
2022-11-13T04:23:18.012Z,12.23
2022-11-13T04:25:49.358Z,11.85
2022-11-13T04:28:19.361Z,11.90
2022-11-13T04:30:55.380Z,12.13
2022-11-13T04:33:25.413Z,11.80
2022-11-13T04:35:55.435Z,12.55
2022-11-13T04:38:25.604Z,14.20
2022-11-13T04:41:15.875Z,13.07
2022-11-13T04:43:45.896Z,12.20
2022-11-13T04:46:15.902Z,13.43
2022-11-13T04:48:45.910Z,12.55
2022-11-13T04:51:16.071Z,13.45
2022-11-13T04:53:46.087Z,11.70
2022-11-13T04:56:16.128Z,11.95
2022-11-13T04:58:46.172Z,13.32
2022-11-13T05:01:16.920Z,12.88
2022-11-13T05:03:46.961Z,13.35
2022-11-13T05:06:17.069Z,13.00
2022-11-13T05:08:47.636Z,12.60
2022-11-13T05:11:17.657Z,11.95
2022-11-13T05:13:47.847Z,11.02
2022-11-13T05:16:17.918Z,11.98
2022-11-13T05:18:48.343Z,11.13
2022-11-13T05:21:18.863Z,11.93
2022-11-13T05:23:48.938Z,11.45
2022-11-13T05:26:19.823Z,12.43
2022-11-13T05:28:49.832Z,11.02
2022-11-13T05:31:19.841Z,11.73
2022-11-13T05:33:49.945Z,11.40
2022-11-13T05:36:21.836Z,11.25
2022-11-13T05:38:52.255Z,11.98
2022-11-13T05:41:23.975Z,11.85
2022-11-13T05:43:59.161Z,11.65
2022-11-13T05:46:30.943Z,12.38
2022-11-13T05:49:02.515Z,12.30
2022-11-13T05:51:35.454Z,12.15
2022-11-13T05:54:04.023Z,12.10
2022-11-13T05:56:36.649Z,12.50
2022-11-13T05:59:07.506Z,12.52
2022-11-13T06:01:40.924Z,11.35
2022-11-13T06:04:11.177Z,13.35
2022-11-13T06:06:42.498Z,13.63
2022-11-13T06:09:17.376Z,14.52
2022-11-13T06:11:47.477Z,14.85
2022-11-13T06:14:17.604Z,15.48
2022-11-13T06:16:47.866Z,16.60
2022-11-13T06:19:17.979Z,16.50
2022-11-13T06:21:48.101Z,13.82
2022-11-13T06:24:18.142Z,14.48
2022-11-13T06:26:48.330Z,15.05
2022-11-13T06:29:16.930Z,16.52
2022-11-13T06:31:45.194Z,15.57
2022-11-13T06:34:13.547Z,14.32
2022-11-13T06:36:41.948Z,15.52
2022-11-13T06:39:10.742Z,15.10
2022-11-13T06:41:39.963Z,16.98
2022-11-13T06:44:07.727Z,16.70
2022-11-13T06:46:36.014Z,14.95
2022-11-13T06:49:04.258Z,16.13
2022-11-13T06:51:32.802Z,15.77
2022-11-13T06:54:01.508Z,15.63
2022-11-13T06:56:29.843Z,15.35
2022-11-13T06:58:57.987Z,15.02
2022-11-13T07:01:27.364Z,16.25
2022-11-13T07:03:55.283Z,15.32
2022-11-13T07:06:25.351Z,16.48
2022-11-13T07:08:54.731Z,15.20
2022-11-13T07:11:24.484Z,16.38
2022-11-13T07:13:54.541Z,15.52
2022-11-13T07:16:23.084Z,18.05
2022-11-13T07:18:54.683Z,18.15
2022-11-13T07:21:23.179Z,18.42
2022-11-13T07:23:52.879Z,18.35
2022-11-13T07:26:24.018Z,19.77
2022-11-13T07:28:53.305Z,17.67
2022-11-13T07:31:23.345Z,19.30
2022-11-13T07:33:53.039Z,19.73
2022-11-13T07:36:23.283Z,21.42
2022-11-13T07:38:56.640Z,21.40
2022-11-13T07:41:26.577Z,19.92
2022-11-13T07:43:56.658Z,20.40
2022-11-13T07:46:23.821Z,22.17
2022-11-13T07:48:53.607Z,22.48
2022-11-13T07:51:23.420Z,22.85
2022-11-13T07:53:53.333Z,23.08
2022-11-13T07:56:25.517Z,22.80
2022-11-13T07:58:55.047Z,22.17
2022-11-13T08:01:25.670Z,21.73
2022-11-13T08:03:55.552Z,20.88
2022-11-13T08:06:27.780Z,19.33
2022-11-13T08:08:57.535Z,20.35
2022-11-13T08:11:27.511Z,20.77
2022-11-13T08:13:57.628Z,20.08
2022-11-13T08:16:31.327Z,20.35
2022-11-13T08:19:02.083Z,20.25
2022-11-13T08:21:31.496Z,19.38
2022-11-13T08:24:00.967Z,20.85
2022-11-13T08:26:30.803Z,20.20
2022-11-13T08:29:01.139Z,20.02
2022-11-13T08:31:32.078Z,18.77
2022-11-13T08:34:03.479Z,19.27
2022-11-13T08:36:33.529Z,17.95
2022-11-13T08:39:03.737Z,16.27
2022-11-13T08:41:34.145Z,16.65
2022-11-13T08:44:04.720Z,16.88
2022-11-13T08:46:35.019Z,16.98
2022-11-13T08:49:05.454Z,17.70
2022-11-13T08:51:35.477Z,17.42
2022-11-13T08:54:05.641Z,18.30
2022-11-13T08:56:35.685Z,18.08
2022-11-13T08:59:06.040Z,17.80
2022-11-13T09:01:36.212Z,17.42
2022-11-13T09:04:06.371Z,18.67
2022-11-13T09:06:36.615Z,18.52
2022-11-13T09:09:07.822Z,17.48
2022-11-13T09:11:38.403Z,17.42
2022-11-13T09:14:08.521Z,16.98
2022-11-13T09:16:38.651Z,16.92
2022-11-13T09:19:09.080Z,17.40
2022-11-13T09:21:39.331Z,16.77
2022-11-13T09:24:09.499Z,18.42
2022-11-13T09:26:39.688Z,21.92
2022-11-13T09:29:08.083Z,22.52
2022-11-13T09:31:39.631Z,21.67
2022-11-13T09:34:08.787Z,21.67
2022-11-13T09:36:37.375Z,23.38
2022-11-13T09:39:08.179Z,23.10
2022-11-13T09:41:46.866Z,21.40
2022-11-13T09:47:29.160Z,21.65
2022-11-13T09:50:22.255Z,21.73
2022-11-13T09:52:55.071Z,21.05
2022-11-13T09:55:59.435Z,20.10
2022-11-13T09:59:00.897Z,19.95
2022-11-13T10:02:41.609Z,19.67
2022-11-13T10:06:01.365Z,20.48
2022-11-13T10:09:01.505Z,19.48
2022-11-13T10:11:47.487Z,20.05
2022-11-13T10:14:35.852Z,19.55
2022-11-13T10:17:40.559Z,17.10
2022-11-13T10:20:47.785Z,18.27
2022-11-13T10:23:34.643Z,17.90
2022-11-13T10:26:21.956Z,17.48
2022-11-13T10:29:13.705Z,19.00
2022-11-13T10:31:52.377Z,17.10
2022-11-13T10:37:27.641Z,17.50
2022-11-13T10:39:57.702Z,18.92
2022-11-13T10:42:39.501Z,17.52
2022-11-13T10:45:23.278Z,18.20
2022-11-13T10:48:08.706Z,18.98
2022-11-13T10:50:40.589Z,18.05
2022-11-13T10:53:19.938Z,18.42
2022-11-13T10:55:59.286Z,18.35
2022-11-13T10:58:27.285Z,18.55
2022-11-13T11:00:55.565Z,17.08
2022-11-13T11:03:27.275Z,17.85
2022-11-13T11:06:02.651Z,18.50
2022-11-13T11:08:36.490Z,17.85
2022-11-13T11:11:37.500Z,18.48
2022-11-13T11:14:32.566Z,18.33
2022-11-13T11:17:07.246Z,17.42
2022-11-13T11:19:44.902Z,18.25
2022-11-13T11:22:30.587Z,17.20
2022-11-13T11:25:30.808Z,18.55
2022-11-13T11:28:21.076Z,17.42
2022-11-13T11:31:42.828Z,17.33
2022-11-13T11:34:45.068Z,17.20
2022-11-13T11:42:40.688Z,18.05
2022-11-13T11:45:26.642Z,19.75
2022-11-13T11:48:00.713Z,18.65
2022-11-13T11:50:51.877Z,17.98
2022-11-13T11:54:07.263Z,19.15
2022-11-13T11:56:55.829Z,19.02
2022-11-13T12:00:06.665Z,18.80
2022-11-13T12:03:04.571Z,19.35
2022-11-13T12:06:31.480Z,18.85
2022-11-13T12:09:36.445Z,19.08
2022-11-13T12:12:54.143Z,17.73
2022-11-13T12:15:52.350Z,17.42
2022-11-13T12:18:38.375Z,16.77
2022-11-13T12:21:25.245Z,17.48
2022-11-13T12:24:18.725Z,15.27
2022-11-13T12:27:16.458Z,16.00
2022-11-13T12:30:22.796Z,15.35
2022-11-13T12:34:01.272Z,15.98
2022-11-13T12:36:33.547Z,15.18
2022-11-13T12:39:36.798Z,15.40
2022-11-13T12:42:34.497Z,13.85
2022-11-13T12:45:33.800Z,15.05
2022-11-13T12:48:18.854Z,16.20
2022-11-13T12:51:22.588Z,16.48
2022-11-13T12:53:54.502Z,16.58
2022-11-13T12:56:27.805Z,17.75
2022-11-13T12:59:31.539Z,15.38
2022-11-13T13:03:09.249Z,16.10
2022-11-13T13:06:24.707Z,16.98
2022-11-13T13:09:18.963Z,15.90
2022-11-13T13:12:01.246Z,15.65
2022-11-13T13:15:00.710Z,15.82
2022-11-13T13:17:28.845Z,15.88
2022-11-13T13:20:34.498Z,15.63
2022-11-13T13:23:10.094Z,16.65
2022-11-13T13:25:41.579Z,16.63
2022-11-13T13:28:24.897Z,16.85
2022-11-13T13:31:37.378Z,16.38
2022-11-13T13:34:54.111Z,15.05
2022-11-13T13:38:18.153Z,16.38
2022-11-13T13:41:12.044Z,15.50
2022-11-13T13:44:32.925Z,15.88
2022-11-13T13:47:28.762Z,15.43
2022-11-13T13:50:04.873Z,16.85
2022-11-13T13:52:38.034Z,16.02
2022-11-13T13:55:28.174Z,16.80
2022-11-13T13:58:08.168Z,16.35
2022-11-13T14:00:53.280Z,17.63
2022-11-13T14:03:30.050Z,16.92
2022-11-13T14:06:22.034Z,19.58
2022-11-13T14:08:52.201Z,18.35
2022-11-13T14:11:29.802Z,19.15
2022-11-13T14:14:22.089Z,20.02
2022-11-13T14:16:54.253Z,19.80
2022-11-13T14:19:24.998Z,18.85
2022-11-13T14:22:08.653Z,20.40
2022-11-13T14:25:26.837Z,19.13
2022-11-13T14:27:57.191Z,19.80
2022-11-13T14:30:30.958Z,20.00
2022-11-13T14:33:08.638Z,19.98
2022-11-13T14:35:41.169Z,20.50
2022-11-13T14:38:26.458Z,19.48
2022-11-13T14:40:58.731Z,19.70
2022-11-13T14:43:34.406Z,20.15
2022-11-13T14:46:28.097Z,18.75
2022-11-13T14:48:57.938Z,20.15
2022-11-13T14:51:34.563Z,19.30
2022-11-13T14:54:08.869Z,18.63
2022-11-13T14:56:43.180Z,19.65
2022-11-13T14:59:28.420Z,19.30
2022-11-13T15:01:59.679Z,17.58
2022-11-13T15:04:30.046Z,19.70
2022-11-13T15:07:18.361Z,19.65
2022-11-13T15:09:50.631Z,18.57
2022-11-13T15:12:22.461Z,19.27
2022-11-13T15:14:52.764Z,19.65
2022-11-13T15:17:24.364Z,19.77
2022-11-13T15:19:55.756Z,19.98
2022-11-13T15:22:27.612Z,19.73
2022-11-13T15:24:58.463Z,19.33
2022-11-13T15:27:29.451Z,19.90
2022-11-13T15:29:59.632Z,19.45
2022-11-13T15:32:29.896Z,21.00
2022-11-13T15:34:59.998Z,18.80
2022-11-13T15:37:28.439Z,18.38
2022-11-13T15:39:56.898Z,18.23
2022-11-13T15:42:35.259Z,19.95
2022-11-13T15:45:06.581Z,17.50
2022-11-13T15:47:37.979Z,19.25
2022-11-13T15:50:13.771Z,18.48
2022-11-13T15:52:52.546Z,19.55
2022-11-13T15:55:32.185Z,17.93
2022-11-13T15:58:02.930Z,19.70
2022-11-13T16:00:31.084Z,20.90
2022-11-13T16:03:00.923Z,19.67
2022-11-13T16:05:30.740Z,20.38
2022-11-13T16:08:00.642Z,19.88
2022-11-13T16:10:30.481Z,19.75
2022-11-13T16:13:00.405Z,19.63
2022-11-13T16:15:30.161Z,20.45
2022-11-13T16:18:02.243Z,20.23
2022-11-13T16:20:31.466Z,19.85
2022-11-13T16:23:02.461Z,20.15
2022-11-13T16:25:33.936Z,18.73
2022-11-13T16:28:02.755Z,19.42
2022-11-13T16:30:31.538Z,18.63
2022-11-13T16:33:05.876Z,19.60
2022-11-13T16:35:36.972Z,21.35
2022-11-13T16:38:15.458Z,20.55
2022-11-13T16:40:45.612Z,19.98
2022-11-13T16:43:14.913Z,20.88
2022-11-13T16:45:44.900Z,23.38
2022-11-13T16:48:16.497Z,20.40
2022-11-13T16:50:46.290Z,21.70
2022-11-13T16:53:16.115Z,22.88
2022-11-13T16:55:45.852Z,20.75
2022-11-13T16:58:15.766Z,21.20
2022-11-13T17:00:45.855Z,20.95
2022-11-13T17:03:15.575Z,21.40
2022-11-13T17:05:45.547Z,21.88
2022-11-13T17:08:15.380Z,22.55
2022-11-13T17:10:45.278Z,23.77
2022-11-13T17:13:15.311Z,22.95
2022-11-13T17:15:44.999Z,22.45
2022-11-13T17:18:15.494Z,24.40
2022-11-13T17:20:45.227Z,22.67
2022-11-13T17:23:16.230Z,23.48
2022-11-13T17:25:47.726Z,23.63
2022-11-13T17:28:16.596Z,24.20
2022-11-13T17:30:46.735Z,22.60
2022-11-13T17:33:17.541Z,23.05
2022-11-13T17:35:55.426Z,25.38
2022-11-13T17:38:27.229Z,24.40
2022-11-13T17:40:55.938Z,23.77
2022-11-13T17:43:25.657Z,24.45
2022-11-13T17:45:55.486Z,22.85
2022-11-13T17:48:25.572Z,25.13
2022-11-13T17:51:03.436Z,23.92
2022-11-13T17:53:32.499Z,24.75
2022-11-13T17:56:05.297Z,23.13
2022-11-13T17:58:44.376Z,25.50
2022-11-13T18:01:22.059Z,24.52
2022-11-13T18:03:56.523Z,23.13
2022-11-13T18:06:26.900Z,22.98
2022-11-13T18:08:57.048Z,23.95
2022-11-13T18:11:30.521Z,25.35
2022-11-13T18:13:58.058Z,22.98
2022-11-13T18:16:34.038Z,26.60
2022-11-13T18:19:06.946Z,24.90
2022-11-13T18:21:38.041Z,26.77
2022-11-13T18:24:15.360Z,26.17
2022-11-13T18:26:46.132Z,25.25
2022-11-13T18:29:16.033Z,24.80
2022-11-13T18:31:46.208Z,27.77
2022-11-13T18:34:22.111Z,27.05
2022-11-13T18:36:51.405Z,26.33
2022-11-13T18:39:21.676Z,27.48
2022-11-13T18:41:50.762Z,30.90
2022-11-13T18:44:21.527Z,28.35
2022-11-13T18:46:51.559Z,26.17
2022-11-13T18:49:22.075Z,26.65
2022-11-13T18:51:49.327Z,28.15
2022-11-13T18:54:19.756Z,27.52
2022-11-13T18:56:49.393Z,27.13
2022-11-13T18:59:19.611Z,27.48
2022-11-13T19:01:49.108Z,26.33
2022-11-13T19:04:23.605Z,26.70
2022-11-13T19:06:53.774Z,25.50
2022-11-13T19:09:23.939Z,27.25
2022-11-13T19:11:54.897Z,25.33
2022-11-13T19:14:24.696Z,26.90
2022-11-13T19:16:54.502Z,27.23
2022-11-13T19:19:25.108Z,25.27
2022-11-13T19:21:54.742Z,27.08
2022-11-13T19:24:22.605Z,23.98
2022-11-13T19:26:52.422Z,25.40
2022-11-13T19:29:25.392Z,24.30
2022-11-13T19:31:54.891Z,25.65
2022-11-13T19:34:23.283Z,24.42
2022-11-13T19:36:53.245Z,24.80
2022-11-13T19:39:21.067Z,25.75
2022-11-13T19:41:50.754Z,24.85
2022-11-13T19:44:20.548Z,26.10
2022-11-13T19:46:53.784Z,24.98
2022-11-13T19:49:25.347Z,26.58
2022-11-13T19:51:56.707Z,27.88
2022-11-13T19:54:26.827Z,26.50
2022-11-13T19:56:57.212Z,26.15
2022-11-13T19:59:27.364Z,26.60
2022-11-13T20:01:57.481Z,27.95
2022-11-13T20:04:27.708Z,26.17
2022-11-13T20:06:57.831Z,26.70
2022-11-13T20:09:29.728Z,28.85
2022-11-13T20:11:59.798Z,29.67
2022-11-13T20:14:33.126Z,29.38
2022-11-13T20:17:04.360Z,29.02
2022-11-13T20:19:32.726Z,30.33
2022-11-13T20:22:01.135Z,34.10
2022-11-13T20:24:29.625Z,31.52
2022-11-13T20:27:00.229Z,31.08
2022-11-13T20:29:32.464Z,29.83
2022-11-13T20:32:02.764Z,32.20
2022-11-13T20:34:32.845Z,32.72
2022-11-13T20:37:03.016Z,35.08
2022-11-13T20:39:33.188Z,35.97
2022-11-13T20:42:03.601Z,34.10
2022-11-13T20:44:34.315Z,34.85
2022-11-13T20:47:04.616Z,33.28
2022-11-13T20:49:34.795Z,34.88
2022-11-13T20:52:07.149Z,33.95
2022-11-13T20:54:37.330Z,33.97
2022-11-13T20:57:07.425Z,32.63
2022-11-13T20:59:37.504Z,34.00
2022-11-13T21:02:10.061Z,35.33
2022-11-13T21:04:40.202Z,36.53
2022-11-13T21:07:10.422Z,35.03
2022-11-13T21:09:40.566Z,34.40
2022-11-13T21:12:14.037Z,37.22
2022-11-13T21:14:46.963Z,35.75
2022-11-13T21:17:17.128Z,37.35
2022-11-13T21:19:45.814Z,40.05
2022-11-13T21:22:14.050Z,35.88
2022-11-13T21:24:42.496Z,33.85
2022-11-13T21:27:11.103Z,35.35
2022-11-13T21:29:39.267Z,37.17
2022-11-13T21:32:09.881Z,38.13
2022-11-13T21:34:41.114Z,38.22
2022-11-13T21:37:12.573Z,39.05
2022-11-13T21:39:42.711Z,40.05
2022-11-13T21:42:16.695Z,37.53
2022-11-13T21:44:47.224Z,38.33
2022-11-13T21:47:17.350Z,37.30
2022-11-13T21:49:47.530Z,36.47
2022-11-13T21:52:18.224Z,37.50
2022-11-13T21:54:48.298Z,38.45
2022-11-13T21:57:19.203Z,35.78
2022-11-13T21:59:49.482Z,36.97
2022-11-13T22:02:19.742Z,34.72
2022-11-13T22:04:51.093Z,37.15
2022-11-13T22:07:21.299Z,36.78
2022-11-13T22:09:53.944Z,35.70
2022-11-13T22:12:24.579Z,35.97
2022-11-13T22:14:54.674Z,39.22
2022-11-13T22:17:24.860Z,39.03
2022-11-13T22:19:55.017Z,36.85
2022-11-13T22:22:25.575Z,37.65
2022-11-13T22:24:55.810Z,38.70
2022-11-13T22:27:26.268Z,39.40
2022-11-13T22:29:56.555Z,38.53
2022-11-13T22:32:27.715Z,37.65
2022-11-13T22:34:57.908Z,39.20
2022-11-13T22:37:27.969Z,39.22
2022-11-13T22:39:58.078Z,37.40
2022-11-13T22:42:28.194Z,39.25
2022-11-13T22:44:58.335Z,38.53
2022-11-13T22:47:28.429Z,40.95
2022-11-13T22:50:00.675Z,39.67
2022-11-13T22:52:30.974Z,40.35
2022-11-13T22:55:01.202Z,39.70
2022-11-13T22:57:32.578Z,40.55
2022-11-13T23:00:11.886Z,39.80
2022-11-13T23:02:47.073Z,41.60
2022-11-13T23:05:16.798Z,41.15
2022-11-13T23:07:45.157Z,41.05
2022-11-13T23:10:13.817Z,40.13
2022-11-13T23:12:43.044Z,44.22
2022-11-13T23:15:10.985Z,40.60
2022-11-13T23:17:38.975Z,44.17
2022-11-13T23:20:08.782Z,44.38
2022-11-13T23:22:38.863Z,42.03
2022-11-13T23:25:08.376Z,43.63
2022-11-13T23:27:35.862Z,43.92
2022-11-13T23:30:05.213Z,41.75
2022-11-13T23:32:32.813Z,43.97
2022-11-13T23:35:01.143Z,44.92
2022-11-13T23:37:29.788Z,45.67
2022-11-13T23:39:58.286Z,45.00
2022-11-13T23:42:45.691Z,45.15
2022-11-13T23:47:46.380Z,42.67
2022-11-13T23:50:17.089Z,44.70
2022-11-13T23:52:49.407Z,46.63
2022-11-13T23:55:21.517Z,43.95
2022-11-13T23:58:04.905Z,44.97
